Time;durP1;ratioP1;P1;durP2;ratioP2;P2;SDS_P1;SDS_P2;PMS_P1;PMS_P2;Temp;Humidity;BMP_temperature;BMP_pressure;BME280_temperature;BME280_humidity;BME280_pressure;Samples;Min_cycle;Max_cycle;Signal;HPM_P1;HPM_P2
2024/01/04 00:00:57;;;;;;;1;0.6;;;;;;;6.9;86.9375;924.5089;;;;
2024/01/04 00:03:35;;;;;;;0.5;0.5;;;;;;;6.85;87.31348;924.535;;;;
2024/01/04 00:06:03;;;;;;;0.3;0.3;;;;;;;6.8;87.85742;924.6359;;;;
2024/01/04 00:08:29;;;;;;;0.4;0.4;;;;;;;6.74;88.03809;924.6231;;;;
2024/01/04 00:10:55;;;;;;;0.8;0.6;;;;;;;6.82;87.26074;924.6686;;;;
2024/01/04 00:13:33;;;;;;;1;0.5;;;;;;;6.86;86.6377;924.588;;;;
2024/01/04 00:16:11;;;;;;;0.4;0.4;;;;;;;6.77;87.10449;924.7126;;;;
2024/01/04 00:18:36;;;;;;;1;0.4;;;;;;;6.75;87.55371;924.6113;;;;
2024/01/04 00:21:15;;;;;;;0.7;0.5;;;;;;;6.76;87.86133;924.6532;;;;
2024/01/04 00:23:53;;;;;;;0.4;0.4;;;;;;;6.64;88.10645;924.5044;;;;
2024/01/04 00:26:30;;;;;;;0.4;0.4;;;;;;;6.64;88.24219;924.6317;;;;
2024/01/04 00:29:08;;;;;;;0.5;0.5;;;;;;;6.62;88.18164;924.7028;;;;
2024/01/04 00:31:53;;;;;;;0.4;0.4;;;;;;;6.73;86.1123;924.325;;;;
2024/01/04 00:34:19;;;;;;;0.4;0.3;;;;;;;6.77;84.96484;924.2957;;;;
2024/01/04 00:36:58;;;;;;;1.4;0.5;;;;;;;6.76;85.69922;924.3471;;;;
2024/01/04 00:39:38;;;;;;;1.2;0.6;;;;;;;6.61;86.95996;924.3557;;;;
2024/01/04 00:42:18;;;;;;;0.3;0.3;;;;;;;6.63;86.66797;924.358;;;;
2024/01/04 00:44:43;;;;;;;0.5;0.5;;;;;;;6.69;86.26172;924.3248;;;;
2024/01/04 00:47:24;;;;;;;0.9;0.5;;;;;;;6.64;86.27344;924.3605;;;;
2024/01/04 00:50:04;;;;;;;0.4;0.4;;;;;;;6.59;86.875;924.4305;;;;
2024/01/04 00:52:42;;;;;;;0.4;0.4;;;;;;;6.6;87.0127;924.61;;;;
2024/01/04 00:55:33;;;;;;;0.8;0.4;;;;;;;6.59;87.24902;924.7112;;;;
2024/01/04 00:58:12;;;;;;;0.9;0.7;;;;;;;6.51;87.92188;924.6889;;;;
2024/01/04 01:00:50;;;;;;;0.9;0.6;;;;;;;6.65;87.16113;924.9931;;;;
2024/01/04 01:03:27;;;;;;;1.2;0.5;;;;;;;6.51;87.70703;924.9339;;;;
2024/01/04 01:06:09;;;;;;;0.4;0.4;;;;;;;6.67;84.90234;924.9584;;;;
2024/01/04 01:08:47;;;;;;;0.8;0.3;;;;;;;6.75;84.04297;925.1563;;;;
2024/01/04 01:11:26;;;;;;;0.2;0.2;;;;;;;6.9;81.89941;925.0247;;;;
2024/01/04 01:14:03;;;;;;;0.3;0.3;;;;;;;6.93;81.52148;924.9149;;;;
2024/01/04 01:16:41;;;;;;;0.8;0.3;;;;;;;6.97;81.06445;924.9805;;;;
2024/01/04 01:19:21;;;;;;;0.3;0.3;;;;;;;7.02;80.92676;924.9666;;;;
2024/01/04 01:21:59;;;;;;;0.9;0.3;;;;;;;7.14;80.66797;924.981;;;;
2024/01/04 01:24:37;;;;;;;0.2;0.2;;;;;;;7.16;82.24609;925.0633;;;;
2024/01/04 01:27:15;;;;;;;0.7;0.4;;;;;;;6.95;83.9707;925.1387;;;;
2024/01/04 01:29:59;;;;;;;0.4;0.3;;;;;;;6.89;85.48828;925.2455;;;;
2024/01/04 01:32:40;;;;;;;0.4;0.2;;;;;;;6.94;85.65625;925.3057;;;;
2024/01/04 01:35:18;;;;;;;0.6;0.2;;;;;;;6.82;86.78711;925.3981;;;;
2024/01/04 01:37:58;;;;;;;0.2;0.2;;;;;;;6.81;87.02344;925.3616;;;;
2024/01/04 01:40:36;;;;;;;0.4;0.2;;;;;;;6.77;86.87793;925.241;;;;
2024/01/04 01:43:14;;;;;;;0.2;0.2;;;;;;;6.72;86.71094;925.2346;;;;
2024/01/04 01:46:07;;;;;;;0.2;0.2;;;;;;;6.82;84.47656;925.2952;;;;
2024/01/04 01:48:45;;;;;;;0.3;0.3;;;;;;;6.81;84.50879;925.199;;;;
2024/01/04 01:51:10;;;;;;;0.3;0.3;;;;;;;;;;;;;
2024/01/04 01:53:55;;;;;;;0.9;0.5;;;;;;;;;;;;;
2024/01/04 01:56:25;;;;;;;0.4;0.4;;;;;;;;;;;;;
2024/01/04 01:58:54;;;;;;;0.8;0.3;;;;;;;;;;;;;
2024/01/04 02:01:24;;;;;;;0.3;0.3;;;;;;;;;;;;;
2024/01/04 02:03:53;;;;;;;0.2;0.2;;;;;;;;;;;;;
2024/01/04 02:06:22;;;;;;;0.4;0.4;;;;;;;;;;;;;
2024/01/04 02:08:54;;;;;;;0.4;0.4;;;;;;;;;;;;;
2024/01/04 02:11:24;;;;;;;0.6;0.6;;;;;;;;;;;;;
2024/01/04 02:13:53;;;;;;;0.9;0.5;;;;;;;;;;;;;
2024/01/04 02:16:23;;;;;;;0.6;0.5;;;;;;;;;;;;;
2024/01/04 02:18:52;;;;;;;0.7;0.4;;;;;;;;;;;;;
2024/01/04 02:21:24;;;;;;;1.2;0.4;;;;;;;;;;;;;
2024/01/04 02:23:53;;;;;;;0.4;0.4;;;;;;;;;;;;;
2024/01/04 02:26:24;;;;;;;0.3;0.3;;;;;;;;;;;;;
2024/01/04 02:28:56;;;;;;;0.3;0.3;;;;;;;;;;;;;
2024/01/04 02:31:25;;;;;;;0.2;0.2;;;;;;;;;;;;;
2024/01/04 02:33:54;;;;;;;0.3;0.3;;;;;;;;;;;;;
2024/01/04 02:36:23;;;;;;;0.7;0.4;;;;;;;;;;;;;
2024/01/04 02:38:58;;;;;;;0.3;0.3;;;;;;;;;;;;;
2024/01/04 02:41:26;;;;;;;0.1;0.1;;;;;;;;;;;;;
2024/01/04 02:43:58;;;;;;;0.4;0.3;;;;;;;;;;;;;
2024/01/04 02:46:31;;;;;;;0.3;0.3;;;;;;;;;;;;;
2024/01/04 02:49:03;;;;;;;1.7;0.3;;;;;;;;;;;;;
2024/01/04 02:51:38;;;;;;;0.2;0.2;;;;;;;;;;;;;
2024/01/04 02:54:09;;;;;;;0.5;0.2;;;;;;;;;;;;;
2024/01/04 02:56:41;;;;;;;0.2;0.2;;;;;;;;;;;;;
2024/01/04 02:59:11;;;;;;;0.2;0.2;;;;;;;;;;;;;
2024/01/04 03:01:41;;;;;;;0.4;0.2;;;;;;;;;;;;;
2024/01/04 03:04:10;;;;;;;0.4;0.4;;;;;;;;;;;;;
2024/01/04 03:06:45;;;;;;;0.2;0.2;;;;;;;;;;;;;
2024/01/04 03:09:14;;;;;;;0.2;0.2;;;;;;;;;;;;;
2024/01/04 03:11:46;;;;;;;0.7;0.2;;;;;;;;;;;;;
2024/01/04 03:14:21;;;;;;;2.2;1;;;;;;;;;;;;;
2024/01/04 03:16:52;;;;;;;0.4;0.2;;;;;;;;;;;;;
2024/01/04 03:19:21;;;;;;;0.4;0.3;;;;;;;;;;;;;
2024/01/04 03:21:53;;;;;;;0.4;0.3;;;;;;;;;;;;;
2024/01/04 03:24:22;;;;;;;0.8;0.2;;;;;;;;;;;;;
2024/01/04 03:26:51;;;;;;;0.2;0.2;;;;;;;;;;;;;
2024/01/04 03:29:33;;;;;;;0.5;0.2;;;;;;;;;;;;;
2024/01/04 03:32:02;;;;;;;0.3;0.3;;;;;;;;;;;;;
2024/01/04 03:34:32;;;;;;;0.8;0.2;;;;;;;;;;;;;
2024/01/04 03:37:02;;;;;;;0.8;0.2;;;;;;;;;;;;;
2024/01/04 03:39:37;;;;;;;0.4;0.2;;;;;;;;;;;;;
2024/01/04 03:42:09;;;;;;;0.2;0.2;;;;;;;;;;;;;
2024/01/04 03:44:38;;;;;;;0.1;0.1;;;;;;;;;;;;;
2024/01/04 03:47:11;;;;;;;0.2;0.2;;;;;;;;;;;;;
2024/01/04 03:49:43;;;;;;;0.8;0.2;;;;;;;;;;;;;
2024/01/04 03:52:12;;;;;;;0.3;0.2;;;;;;;;;;;;;
2024/01/04 03:54:41;;;;;;;0.2;0.2;;;;;;;;;;;;;
2024/01/04 03:57:13;;;;;;;0.2;0.2;;;;;;;;;;;;;
2024/01/04 03:59:43;;;;;;;0.1;0.1;;;;;;;;;;;;;
2024/01/04 04:02:58;;;;;;;0.2;0.2;;;;;;;7.55;64.71094;925.5731;;;;
2024/01/04 04:05:36;;;;;;;0.2;0.1;;;;;;;7.58;68.76367;925.6088;;;;
2024/01/04 04:08:01;;;;;;;0.1;0.1;;;;;;;7.54;66.05859;925.5375;;;;
2024/01/04 04:10:30;;;;;;;0.4;0.2;;;;;;;7.77;63.42773;925.6581;;;;
2024/01/04 04:13:08;;;;;;;0.2;0.2;;;;;;;7.84;62.25781;925.5625;;;;
2024/01/04 04:15:46;;;;;;;0.1;0.1;;;;;;;7.8;69.10449;925.7333;;;;
2024/01/04 04:18:23;;;;;;;0.6;0.6;;;;;;;7.57;68.36523;925.5319;;;;
2024/01/04 04:21:03;;;;;;;0.2;0.2;;;;;;;7.71;66.54883;925.6509;;;;
2024/01/04 04:23:49;;;;;;;0.3;0.2;;;;;;;7.86;63.83789;925.3667;;;;
2024/01/04 04:26:19;;;;;;;0.2;0.2;;;;;;;7.89;61.27734;925.4443;;;;
2024/01/04 04:28:57;;;;;;;0.6;0.2;;;;;;;8.08;60.37402;925.5363;;;;
2024/01/04 04:31:38;;;;;;;0.5;0.2;;;;;;;8.08;61.91797;925.6717;;;;
2024/01/04 04:34:16;;;;;;;0.2;0.2;;;;;;;7.93;64.63184;925.8967;;;;
2024/01/04 04:36:53;;;;;;;0.3;0.2;;;;;;;7.86;65.92578;925.6964;;;;
2024/01/04 04:39:34;;;;;;;0.2;0.2;;;;;;;7.92;63.81348;925.7644;;;;
2024/01/04 04:42:14;;;;;;;0.1;0.1;;;;;;;7.86;65.34766;925.957;;;;
2024/01/04 04:44:55;;;;;;;0.5;0.2;;;;;;;7.96;65.52148;926.0045;;;;
2024/01/04 04:47:26;;;;;;;0.3;0.1;;;;;;;7.97;65.77051;926.1583;;;;
2024/01/04 04:50:20;;;;;;;0.4;0.2;;;;;;;7.97;66.64648;926.2288;;;;
2024/01/04 04:53:00;;;;;;;0.1;0.1;;;;;;;8;66.54785;926.327;;;;
2024/01/04 04:55:38;;;;;;;0.2;0.2;;;;;;;7.98;67.12402;926.4008;;;;
2024/01/04 04:58:04;;;;;;;0.4;0.2;;;;;;;7.99;67.70508;926.5276;;;;
2024/01/04 05:00:29;;;;;;;0.3;0.2;;;;;;;7.93;68.74023;926.4254;;;;
2024/01/04 05:03:07;;;;;;;0.1;0.1;;;;;;;7.94;69.96582;926.6758;;;;
2024/01/04 05:05:45;;;;;;;0.3;0.2;;;;;;;7.86;71.17969;926.7154;;;;
2024/01/04 05:08:22;;;;;;;22;15.1;;;;;;;7.93;70.76074;926.6092;;;;
2024/01/04 05:11:01;;;;;;;6.3;4.8;;;;;;;7.88;71.2959;926.587;;;;
2024/01/04 05:13:39;;;;;;;2.5;2.3;;;;;;;7.71;72.59473;926.4678;;;;
2024/01/04 05:16:19;;;;;;;0.6;0.1;;;;;;;7.79;71.74609;926.5527;;;;
2024/01/04 05:19:00;;;;;;;0.7;0.7;;;;;;;7.72;72.05176;926.7935;;;;
2024/01/04 05:21:25;;;;;;;0.5;0.3;;;;;;;7.65;72.83398;926.9612;;;;
2024/01/04 05:23:56;;;;;;;0.9;0.8;;;;;;;7.68;72.55566;926.9796;;;;
2024/01/04 05:26:22;;;;;;;0.3;0.3;;;;;;;7.71;73.27637;926.8101;;;;
2024/01/04 05:29:03;;;;;;;1.3;0.5;;;;;;;7.69;74.34961;926.7483;;;;
2024/01/04 05:31:41;;;;;;;0.6;0.3;;;;;;;7.62;75.62012;927.2449;;;;
2024/01/04 05:34:21;;;;;;;1.3;0.4;;;;;;;7.6;75.38867;927.4813;;;;
2024/01/04 05:36:59;;;;;;;0.2;0.2;;;;;;;7.54;76.1709;927.4692;;;;
2024/01/04 05:39:37;;;;;;;1.2;0.1;;;;;;;7.37;78.47754;927.5008;;;;
2024/01/04 05:42:21;;;;;;;0.1;0.1;;;;;;;7.26;79.89453;927.5377;;;;
2024/01/04 05:44:59;;;;;;;0.8;0.8;;;;;;;7.28;80.2832;927.5868;;;;
2024/01/04 05:47:24;;;;;;;0.8;0.6;;;;;;;7.21;80.72461;927.6174;;;;
2024/01/04 05:50:03;;;;;;;0.9;0.5;;;;;;;7.15;81.50586;927.6809;;;;
2024/01/04 05:52:30;;;;;;;56.4;29.7;;;;;;;7.16;82.19922;927.5447;;;;
2024/01/04 05:55:11;;;;;;;38;21.2;;;;;;;7.09;82.91016;927.679;;;;
2024/01/04 05:57:49;;;;;;;21.3;10.6;;;;;;;7.06;83.85742;927.7019;;;;
2024/01/04 06:00:27;;;;;;;44.2;17.8;;;;;;;7.1;83.29883;927.7321;;;;
2024/01/04 06:03:08;;;;;;;58;23;;;;;;;7.05;83.48047;927.8292;;;;
2024/01/04 06:05:34;;;;;;;20.8;8.8;;;;;;;7.11;83.3457;927.858;;;;
2024/01/04 06:08:03;;;;;;;8.8;4.2;;;;;;;;;;;;;
2024/01/04 06:10:36;;;;;;;6.7;4.2;;;;;;;;;;;;;
2024/01/04 06:13:07;;;;;;;9.2;7.1;;;;;;;;;;;;;
2024/01/04 06:15:37;;;;;;;10.6;7.4;;;;;;;;;;;;;
2024/01/04 06:18:08;;;;;;;1.6;1.4;;;;;;;;;;;;;
2024/01/04 06:20:43;;;;;;;1.9;1.6;;;;;;;;;;;;;
2024/01/04 06:23:17;;;;;;;1.2;1.1;;;;;;;;;;;;;
2024/01/04 06:25:42;;;;;;;0.6;0.6;;;;;;;;;;;;;
2024/01/04 06:28:16;;;;;;;1.8;1;;;;;;;;;;;;;
2024/01/04 06:30:44;;;;;;;1.6;0.7;;;;;;;;;;;;;
2024/01/04 06:33:14;;;;;;;0.6;0.6;;;;;;;;;;;;;
2024/01/04 06:35:43;;;;;;;0.6;0.5;;;;;;;;;;;;;
2024/01/04 06:38:12;;;;;;;1;0.5;;;;;;;;;;;;;
2024/01/04 06:40:38;;;;;;;0.8;0.6;;;;;;;;;;;;;
2024/01/04 06:43:08;;;;;;;0.9;0.8;;;;;;;;;;;;;
2024/01/04 06:45:38;;;;;;;1.7;1.3;;;;;;;;;;;;;
2024/01/04 06:48:09;;;;;;;1.7;1.6;;;;;;;;;;;;;
2024/01/04 06:50:42;;;;;;;2.1;1;;;;;;;;;;;;;
2024/01/04 06:53:14;;;;;;;1.7;1.3;;;;;;;;;;;;;
2024/01/04 06:55:43;;;;;;;5.3;3.4;;;;;;;;;;;;;
2024/01/04 06:58:13;;;;;;;5.9;3.3;;;;;;;;;;;;;
2024/01/04 07:00:43;;;;;;;4.1;3.1;;;;;;;;;;;;;
2024/01/04 07:03:16;;;;;;;6.7;4.5;;;;;;;;;;;;;
2024/01/04 07:05:46;;;;;;;8.1;4.5;;;;;;;;;;;;;
2024/01/04 07:08:16;;;;;;;8.1;4.8;;;;;;;;;;;;;
2024/01/04 07:10:49;;;;;;;6;3.3;;;;;;;;;;;;;
2024/01/04 07:13:27;;;;;;;1.2;1.1;;;;;;;;;;;;;
2024/01/04 07:15:56;;;;;;;1.4;1.3;;;;;;;;;;;;;
2024/01/04 07:18:27;;;;;;;0.8;0.7;;;;;;;;;;;;;
2024/01/04 07:20:51;;;;;;;2;0.7;;;;;;;;;;;;;
2024/01/04 07:23:23;;;;;;;1.2;0.7;;;;;;;;;;;;;
2024/01/04 07:25:55;;;;;;;1.7;1.2;;;;;;;;;;;;;
2024/01/04 07:28:24;;;;;;;1.3;0.8;;;;;;;;;;;;;
2024/01/04 07:30:54;;;;;;;1.6;0.6;;;;;;;;;;;;;
2024/01/04 07:33:26;;;;;;;1.4;1.2;;;;;;;;;;;;;
2024/01/04 07:35:51;;;;;;;1.3;1;;;;;;;;;;;;;
2024/01/04 07:38:20;;;;;;;1.2;0.9;;;;;;;;;;;;;
2024/01/04 07:40:49;;;;;;;1.3;1;;;;;;;;;;;;;
2024/01/04 07:43:20;;;;;;;2.4;1.1;;;;;;;;;;;;;
2024/01/04 07:45:52;;;;;;;1.7;1.2;;;;;;;;;;;;;
2024/01/04 07:48:22;;;;;;;1.2;0.9;;;;;;;;;;;;;
2024/01/04 07:50:52;;;;;;;1;0.9;;;;;;;;;;;;;
2024/01/04 07:53:24;;;;;;;1.3;1;;;;;;;;;;;;;
2024/01/04 07:55:54;;;;;;;1.3;1.2;;;;;;;;;;;;;
2024/01/04 07:58:23;;;;;;;2.6;1.9;;;;;;;;;;;;;
2024/01/04 08:00:55;;;;;;;2.8;1.9;;;;;;;;;;;;;
2024/01/04 08:03:28;;;;;;;2.5;2;;;;;;;;;;;;;
2024/01/04 08:06:00;;;;;;;2.1;1.7;;;;;;;;;;;;;
2024/01/04 08:08:32;;;;;;;2.6;2.1;;;;;;;;;;;;;
2024/01/04 08:11:03;;;;;;;4.4;2.7;;;;;;;;;;;;;
2024/01/04 08:13:33;;;;;;;2.7;2.4;;;;;;;;;;;;;
2024/01/04 08:16:04;;;;;;;2.4;2;;;;;;;;;;;;;
2024/01/04 08:18:35;;;;;;;3.1;2.1;;;;;;;;;;;;;
2024/01/04 08:21:08;;;;;;;2.9;1.5;;;;;;;;;;;;;
2024/01/04 08:23:40;;;;;;;1.7;1.4;;;;;;;;;;;;;
2024/01/04 08:26:12;;;;;;;2.8;1.3;;;;;;;;;;;;;
2024/01/04 08:28:44;;;;;;;1.2;1;;;;;;;;;;;;;
2024/01/04 08:31:16;;;;;;;1.6;0.9;;;;;;;;;;;;;
2024/01/04 08:33:50;;;;;;;1.2;1.1;;;;;;;;;;;;;
2024/01/04 08:36:19;;;;;;;1.9;1.7;;;;;;;;;;;;;
2024/01/04 08:38:49;;;;;;;1.5;1.3;;;;;;;;;;;;;
2024/01/04 08:41:18;;;;;;;0.9;0.9;;;;;;;;;;;;;
2024/01/04 08:43:53;;;;;;;0.8;0.8;;;;;;;;;;;;;
2024/01/04 08:46:22;;;;;;;1.5;0.9;;;;;;;;;;;;;
2024/01/04 08:48:51;;;;;;;1.9;0.9;;;;;;;;;;;;;
2024/01/04 08:51:20;;;;;;;1.8;1;;;;;;;;;;;;;
2024/01/04 08:53:52;;;;;;;5;2.2;;;;;;;;;;;;;
2024/01/04 08:56:21;;;;;;;4;2;;;;;;;;;;;;;
2024/01/04 08:58:50;;;;;;;4.1;1.7;;;;;;;;;;;;;
2024/01/04 09:01:22;;;;;;;4.4;2.6;;;;;;;;;;;;;
2024/01/04 09:03:56;;;;;;;6;3.4;;;;;;;;;;;;;
2024/01/04 09:06:25;;;;;;;5.5;3.2;;;;;;;;;;;;;
2024/01/04 09:08:55;;;;;;;3.9;2.5;;;;;;;;;;;;;
2024/01/04 09:11:27;;;;;;;4.8;2.7;;;;;;;;;;;;;
2024/01/04 09:13:58;;;;;;;6.6;4.9;;;;;;;;;;;;;
2024/01/04 09:16:28;;;;;;;4.2;2.9;;;;;;;;;;;;;
2024/01/04 09:19:00;;;;;;;8.3;5.5;;;;;;;;;;;;;
2024/01/04 09:21:30;;;;;;;16.7;9.4;;;;;;;;;;;;;
2024/01/04 09:24:01;;;;;;;11.8;7;;;;;;;;;;;;;
2024/01/04 09:26:30;;;;;;;7.1;3.8;;;;;;;;;;;;;
2024/01/04 09:29:03;;;;;;;3.3;1.8;;;;;;;;;;;;;
2024/01/04 09:31:32;;;;;;;2.1;1.6;;;;;;;;;;;;;
2024/01/04 09:34:01;;;;;;;17.8;8.6;;;;;;;;;;;;;
2024/01/04 09:36:31;;;;;;;20.6;9.2;;;;;;;;;;;;;
2024/01/04 09:39:03;;;;;;;4.5;2.9;;;;;;;;;;;;;
2024/01/04 09:41:35;;;;;;;3.4;2.4;;;;;;;;;;;;;
2024/01/04 09:44:07;;;;;;;4.2;2.3;;;;;;;;;;;;;
2024/01/04 09:46:39;;;;;;;3.1;2;;;;;;;;;;;;;
2024/01/04 09:49:08;;;;;;;2.5;2;;;;;;;;;;;;;
2024/01/04 09:51:41;;;;;;;2.8;1.9;;;;;;;;;;;;;
2024/01/04 09:54:15;;;;;;;2.7;1.7;;;;;;;;;;;;;
2024/01/04 09:56:50;;;;;;;2.6;1.7;;;;;;;;;;;;;
2024/01/04 09:59:20;;;;;;;3.9;2.5;;;;;;;;;;;;;
2024/01/04 10:01:51;;;;;;;3.3;2.4;;;;;;;;;;;;;
2024/01/04 10:04:26;;;;;;;3.6;2.4;;;;;;;;;;;;;
2024/01/04 10:07:00;;;;;;;2.1;1.6;;;;;;;;;;;;;
2024/01/04 10:09:26;;;;;;;2;1.4;;;;;;;;;;;;;
2024/01/04 10:12:02;;;;;;;3.1;1.6;;;;;;;;;;;;;
2024/01/04 10:14:35;;;;;;;2.5;1.9;;;;;;;;;;;;;
2024/01/04 10:17:05;;;;;;;2.1;1.6;;;;;;;;;;;;;
2024/01/04 10:19:34;;;;;;;2.9;1.8;;;;;;;;;;;;;
2024/01/04 10:22:04;;;;;;;2.9;2.2;;;;;;;;;;;;;
2024/01/04 10:24:37;;;;;;;4;2.5;;;;;;;;;;;;;
2024/01/04 10:27:02;;;;;;;3;2.1;;;;;;;;;;;;;
2024/01/04 10:29:35;;;;;;;3;2;;;;;;;;;;;;;
2024/01/04 10:32:08;;;;;;;2.7;2.4;;;;;;;;;;;;;
2024/01/04 10:34:37;;;;;;;2.6;1.6;;;;;;;;;;;;;
2024/01/04 10:37:17;;;;;;;3.5;2.4;;;;;;;;;;;;;
2024/01/04 10:39:43;;;;;;;4.2;2.7;;;;;;;;;;;;;
2024/01/04 10:42:10;;;;;;;3;2.2;;;;;;;;;;;;;
2024/01/04 10:44:39;;;;;;;10.1;7.8;;;;;;;;;;;;;
2024/01/04 10:47:09;;;;;;;59;38.8;;;;;;;;;;;;;
2024/01/04 10:49:43;;;;;;;34.3;22.7;;;;;;;;;;;;;
2024/01/04 10:52:13;;;;;;;17.5;11.8;;;;;;;;;;;;;
2024/01/04 10:54:43;;;;;;;8.8;6.2;;;;;;;;;;;;;
2024/01/04 10:57:13;;;;;;;8.2;5.3;;;;;;;;;;;;;
2024/01/04 10:59:39;;;;;;;5.4;4.1;;;;;;;;;;;;;
2024/01/04 11:02:21;;;;;;;5.5;4.2;;;;;;;;;;;;;
2024/01/04 11:04:56;;;;;;;4;3;;;;;;;;;;;;;
2024/01/04 11:07:28;;;;;;;3.4;2.5;;;;;;;;;;;;;
2024/01/04 11:09:59;;;;;;;2.5;1.6;;;;;;;;;;;;;
2024/01/04 11:12:30;;;;;;;2.7;1.9;;;;;;;;;;;;;
2024/01/04 11:14:59;;;;;;;4.3;2;;;;;;;;;;;;;
2024/01/04 11:17:29;;;;;;;4.3;2.1;;;;;;;;;;;;;
2024/01/04 11:19:59;;;;;;;3.8;2.7;;;;;;;;;;;;;
2024/01/04 11:22:31;;;;;;;1.7;0.9;;;;;;;;;;;;;
2024/01/04 11:25:03;;;;;;;0.5;0.5;;;;;;;;;;;;;
2024/01/04 11:27:30;;;;;;;1.4;0.6;;;;;;;;;;;;;
2024/01/04 11:30:02;;;;;;;1.8;0.4;;;;;;;;;;;;;
2024/01/04 11:32:36;;;;;;;0.4;0.4;;;;;;;;;;;;;
2024/01/04 11:35:02;;;;;;;2.3;0.9;;;;;;;;;;;;;
2024/01/04 11:37:37;;;;;;;2.1;1;;;;;;;;;;;;;
2024/01/04 11:40:10;;;;;;;1.1;1;;;;;;;;;;;;;
2024/01/04 11:42:39;;;;;;;3.3;1.6;;;;;;;;;;;;;
2024/01/04 11:45:11;;;;;;;0.7;0.7;;;;;;;;;;;;;
2024/01/04 11:47:43;;;;;;;0.8;0.8;;;;;;;;;;;;;
2024/01/04 11:50:17;;;;;;;1.2;0.8;;;;;;;;;;;;;
2024/01/04 11:52:48;;;;;;;1.2;0.5;;;;;;;;;;;;;
2024/01/04 11:55:19;;;;;;;0.6;0.5;;;;;;;;;;;;;
2024/01/04 11:57:48;;;;;;;0.5;0.5;;;;;;;;;;;;;
2024/01/04 12:00:15;;;;;;;0.5;0.5;;;;;;;;;;;;;
2024/01/04 12:02:40;;;;;;;1;0.5;;;;;;;;;;;;;
2024/01/04 12:05:11;;;;;;;2.4;1.3;;;;;;;;;;;;;
2024/01/04 12:07:45;;;;;;;2.3;1.5;;;;;;;;;;;;;
2024/01/04 12:10:14;;;;;;;2.5;1.5;;;;;;;;;;;;;
2024/01/04 12:12:48;;;;;;;2.7;1.5;;;;;;;;;;;;;
2024/01/04 12:15:13;;;;;;;1;0.9;;;;;;;;;;;;;
2024/01/04 12:17:44;;;;;;;1;0.7;;;;;;;;;;;;;
2024/01/04 12:20:14;;;;;;;1.7;0.6;;;;;;;;;;;;;
2024/01/04 12:22:43;;;;;;;1.1;0.8;;;;;;;;;;;;;
2024/01/04 12:25:13;;;;;;;0.6;0.6;;;;;;;;;;;;;
2024/01/04 12:27:43;;;;;;;1.6;0.6;;;;;;;;;;;;;
2024/01/04 12:30:08;;;;;;;1.2;0.5;;;;;;;;;;;;;
2024/01/04 12:32:38;;;;;;;1.4;0.6;;;;;;;;;;;;;
2024/01/04 12:35:13;;;;;;;1.3;0.8;;;;;;;;;;;;;
2024/01/04 12:37:43;;;;;;;1;0.6;;;;;;;;;;;;;
2024/01/04 12:40:21;;;;;;;0.5;0.5;;;;;;;;;;;;;
2024/01/04 12:42:53;;;;;;;0.6;0.5;;;;;;;;;;;;;
2024/01/04 12:45:40;;;;;;;0.4;0.4;;;;;;;;;;;;;
2024/01/04 12:48:11;;;;;;;0.4;0.4;;;;;;;;;;;;;
2024/01/04 12:50:42;;;;;;;0.5;0.4;;;;;;;;;;;;;
2024/01/04 12:53:07;;;;;;;0.6;0.4;;;;;;;;;;;;;
2024/01/04 12:55:37;;;;;;;0.4;0.4;;;;;;;;;;;;;
2024/01/04 12:58:06;;;;;;;2;0.7;;;;;;;;;;;;;
2024/01/04 13:00:39;;;;;;;1.9;0.9;;;;;;;;;;;;;
2024/01/04 13:03:09;;;;;;;0.5;0.5;;;;;;;;;;;;;
2024/01/04 13:05:38;;;;;;;1.1;0.6;;;;;;;;;;;;;
2024/01/04 13:08:20;;;;;;;1.9;1;;;;;;;;;;;;;
2024/01/04 13:10:53;;;;;;;0.9;0.7;;;;;;;;;;;;;
2024/01/04 13:13:29;;;;;;;2.4;1.5;;;;;;;;;;;;;
2024/01/04 13:15:58;;;;;;;5.9;2.8;;;;;;;;;;;;;
2024/01/04 13:18:29;;;;;;;4.4;2.2;;;;;;;;;;;;;
2024/01/04 13:21:00;;;;;;;6.3;2.8;;;;;;;;;;;;;
2024/01/04 13:23:32;;;;;;;7.4;4.4;;;;;;;;;;;;;
2024/01/04 13:26:01;;;;;;;6.2;3.3;;;;;;;;;;;;;
2024/01/04 13:28:33;;;;;;;8.1;3.8;;;;;;;;;;;;;
2024/01/04 13:31:06;;;;;;;6;3.7;;;;;;;;;;;;;
2024/01/04 13:33:35;;;;;;;10.6;6.6;;;;;;;;;;;;;
2024/01/04 13:36:08;;;;;;;11.8;7.9;;;;;;;;;;;;;
2024/01/04 13:38:38;;;;;;;7.3;3.9;;;;;;;;;;;;;
2024/01/04 13:41:11;;;;;;;4.2;2.6;;;;;;;;;;;;;
2024/01/04 13:43:44;;;;;;;3.6;2.2;;;;;;;;;;;;;
2024/01/04 13:46:14;;;;;;;2.3;1.9;;;;;;;;;;;;;
2024/01/04 13:48:46;;;;;;;2.5;1.6;;;;;;;;;;;;;
2024/01/04 13:51:18;;;;;;;2.3;1.2;;;;;;;;;;;;;
2024/01/04 13:53:53;;;;;;;2.9;1.5;;;;;;;;;;;;;
2024/01/04 13:56:22;;;;;;;3;1.6;;;;;;;;;;;;;
2024/01/04 13:58:54;;;;;;;2.5;1.7;;;;;;;;;;;;;
2024/01/04 14:01:27;;;;;;;2.2;1.3;;;;;;;;;;;;;
2024/01/04 14:03:56;;;;;;;1.9;1.1;;;;;;;;;;;;;
2024/01/04 14:06:27;;;;;;;2.3;2;;;;;;;;;;;;;
2024/01/04 14:08:58;;;;;;;2.9;1.9;;;;;;;;;;;;;
2024/01/04 14:11:33;;;;;;;3.4;1.8;;;;;;;;;;;;;
2024/01/04 14:14:09;;;;;;;1.9;1.5;;;;;;;;;;;;;
2024/01/04 14:16:39;;;;;;;1.6;1.2;;;;;;;;;;;;;
2024/01/04 14:19:09;;;;;;;1.9;1.6;;;;;;;;;;;;;
2024/01/04 14:21:39;;;;;;;4.2;2;;;;;;;;;;;;;
2024/01/04 14:24:12;;;;;;;2.8;2;;;;;;;;;;;;;
2024/01/04 14:26:41;;;;;;;2.5;2.1;;;;;;;;;;;;;
2024/01/04 14:29:15;;;;;;;3.1;1.9;;;;;;;;;;;;;
2024/01/04 14:31:39;;;;;;;2.6;1.8;;;;;;;;;;;;;
2024/01/04 14:34:12;;;;;;;2.7;1.6;;;;;;;;;;;;;
2024/01/04 14:36:43;;;;;;;3.1;1.5;;;;;;;;;;;;;
2024/01/04 14:39:21;;;;;;;1.8;1.3;;;;;;;;;;;;;
2024/01/04 14:41:46;;;;;;;2.6;2.2;;;;;;;;;;;;;
2024/01/04 14:44:16;;;;;;;3.2;2.3;;;;;;;;;;;;;
2024/01/04 14:46:48;;;;;;;4.4;2.3;;;;;;;;;;;;;
2024/01/04 14:49:18;;;;;;;6.2;4.3;;;;;;;;;;;;;
2024/01/04 14:51:47;;;;;;;5.6;4;;;;;;;;;;;;;
2024/01/04 14:54:16;;;;;;;5;3.3;;;;;;;;;;;;;
2024/01/04 14:56:48;;;;;;;2.8;2.1;;;;;;;;;;;;;
2024/01/04 14:59:17;;;;;;;3;2.4;;;;;;;;;;;;;
2024/01/04 15:01:49;;;;;;;3.3;2.3;;;;;;;;;;;;;
2024/01/04 15:04:21;;;;;;;3.5;2.7;;;;;;;;;;;;;
2024/01/04 15:06:50;;;;;;;4.8;2.5;;;;;;;;;;;;;
2024/01/04 15:09:22;;;;;;;4.2;2.6;;;;;;;;;;;;;
2024/01/04 15:11:54;;;;;;;6.2;4;;;;;;;;;;;;;
2024/01/04 15:14:26;;;;;;;8.1;4.3;;;;;;;;;;;;;
2024/01/04 15:16:58;;;;;;;9.4;5.2;;;;;;;;;;;;;
2024/01/04 15:19:27;;;;;;;7.3;4.7;;;;;;;;;;;;;
2024/01/04 15:21:56;;;;;;;8;4.9;;;;;;;;;;;;;
2024/01/04 15:24:41;;;;;;;7.2;5;;;;;;;;;;;;;
2024/01/04 15:27:11;;;;;;;7.8;5.3;;;;;;;;;;;;;
2024/01/04 15:29:41;;;;;;;10.2;6.3;;;;;;;;;;;;;
2024/01/04 15:32:10;;;;;;;7.1;4.7;;;;;;;;;;;;;
2024/01/04 15:34:40;;;;;;;6.3;3.2;;;;;;;;;;;;;
2024/01/04 15:37:10;;;;;;;4.7;2.9;;;;;;;;;;;;;
2024/01/04 15:39:39;;;;;;;5.4;3.1;;;;;;;;;;;;;
2024/01/04 15:42:10;;;;;;;19.3;10.2;;;;;;;;;;;;;
2024/01/04 15:44:40;;;;;;;19.5;10.6;;;;;;;;;;;;;
2024/01/04 15:47:10;;;;;;;24;11.8;;;;;;;;;;;;;
2024/01/04 15:49:52;;;;;;;21.3;11.7;;;;;;;;;;;;;
2024/01/04 15:52:31;;;;;;;33.6;16;;;;;;;;;;;;;
2024/01/04 15:55:04;;;;;;;15.9;7.1;;;;;;;;;;;;;
2024/01/04 15:57:34;;;;;;;14.1;7.1;;;;;;;;;;;;;
2024/01/04 16:00:07;;;;;;;17.2;9.5;;;;;;;;;;;;;
2024/01/04 16:02:42;;;;;;;22.3;10.6;;;;;;;;;;;;;
2024/01/04 16:05:09;;;;;;;13.2;6.7;;;;;;;;;;;;;
2024/01/04 16:10:53;;;;;;;15.6;8.6;;;;;;;6.18;82.49805;930.1508;;;;
2024/01/04 16:13:34;;;;;;;12.6;6.8;;;;;;;6.15;82.27832;930.2356;;;;
2024/01/04 16:16:12;;;;;;;17.7;11.7;;;;;;;6.01;82.43066;930.2394;;;;
2024/01/04 16:18:53;;;;;;;17.6;12.3;;;;;;;6.05;82.8916;930.1909;;;;
2024/01/04 16:21:32;;;;;;;20;12.6;;;;;;;5.95;82.93848;930.187;;;;
2024/01/04 16:24:11;;;;;;;13.6;10.1;;;;;;;5.86;82.94531;930.202;;;;
2024/01/04 16:26:49;;;;;;;19;11.8;;;;;;;5.79;84.04883;930.2394;;;;
2024/01/04 16:29:27;;;;;;;14.5;9.6;;;;;;;5.82;83.94141;930.1959;;;;
2024/01/04 16:32:05;;;;;;;12.5;8.5;;;;;;;5.68;83.91309;930.282;;;;
2024/01/04 16:35:02;;;;;;;10.8;7.7;;;;;;;5.57;84.27734;930.2661;;;;
2024/01/04 16:37:44;;;;;;;8.9;6.2;;;;;;;5.53;83.8623;930.2125;;;;
2024/01/04 16:40:21;;;;;;;10.1;7.1;;;;;;;5.51;84.24219;930.1924;;;;
2024/01/04 16:43:01;;;;;;;11.1;7.8;;;;;;;5.51;84.49121;930.2145;;;;
2024/01/04 16:45:27;;;;;;;14.8;9.1;;;;;;;5.44;84.86035;930.223;;;;
2024/01/04 16:48:06;;;;;;;17.6;11.1;;;;;;;5.41;85.2041;930.2312;;;;
2024/01/04 16:50:44;;;;;;;17.1;10.9;;;;;;;5.4;85.21191;930.2497;;;;
2024/01/04 16:53:37;;;;;;;13.6;9.5;;;;;;;5.34;85.39355;930.177;;;;
2024/01/04 16:56:06;;;;;;;19.9;12.6;;;;;;;5.29;85.60938;930.2015;;;;
2024/01/04 16:58:46;;;;;;;33.6;19.5;;;;;;;5.25;85.54395;930.1472;;;;
2024/01/04 17:01:25;;;;;;;23;15.2;;;;;;;5.27;85.76074;930.2097;;;;
2024/01/04 17:04:05;;;;;;;23.5;14.1;;;;;;;5.26;85.64746;930.1489;;;;
2024/01/04 17:06:48;;;;;;;31;16.3;;;;;;;5.16;85.80859;930.2172;;;;
2024/01/04 17:09:27;;;;;;;35.4;18.2;;;;;;;5.24;85.47461;930.2022;;;;
2024/01/04 17:12:10;;;;;;;19.8;12.1;;;;;;;5.22;85.4375;930.2335;;;;
2024/01/04 17:14:53;;;;;;;18.3;12.1;;;;;;;5.19;85.43164;930.2967;;;;
2024/01/04 17:17:31;;;;;;;14.1;9.9;;;;;;;5.03;85.43359;930.2355;;;;
2024/01/04 17:20:13;;;;;;;17.5;11.7;;;;;;;5.02;85.72461;930.1722;;;;
2024/01/04 17:22:54;;;;;;;16.7;11.7;;;;;;;5.03;85.85059;930.2039;;;;
2024/01/04 17:25:33;;;;;;;17.4;11.7;;;;;;;5.06;85.57422;930.1721;;;;
2024/01/04 17:28:25;;;;;;;19;11.3;;;;;;;4.95;86.0459;930.125;;;;
2024/01/04 17:31:04;;;;;;;16.9;10.8;;;;;;;4.79;85.64355;930.1006;;;;
2024/01/04 17:33:46;;;;;;;19.8;11.5;;;;;;;4.88;85.67285;930.0672;;;;
2024/01/04 17:36:24;;;;;;;10.1;7.3;;;;;;;4.87;85.37988;930.149;;;;
2024/01/04 17:39:06;;;;;;;6.7;4.6;;;;;;;4.77;85.67383;930.0641;;;;
2024/01/04 17:41:48;;;;;;;6;3.6;;;;;;;4.63;85.86816;929.9739;;;;
2024/01/04 17:44:13;;;;;;;4.4;3.5;;;;;;;4.57;85.79199;929.9167;;;;
2024/01/04 17:46:55;;;;;;;5.2;4;;;;;;;4.58;85.94922;930.088;;;;
2024/01/04 17:49:35;;;;;;;5;4.1;;;;;;;4.44;85.94629;930.1469;;;;
2024/01/04 17:52:19;;;;;;;7.9;5.6;;;;;;;4.3;86.07324;930.1895;;;;
2024/01/04 17:55:00;;;;;;;38.5;26.4;;;;;;;4.23;86.4668;930.1536;;;;
2024/01/04 17:57:26;;;;;;;12;7.8;;;;;;;4.33;86.4834;930.2153;;;;
2024/01/04 17:59:55;;;;;;;9.3;6.8;;;;;;;4.41;86.27637;930.2346;;;;
2024/01/04 18:02:33;;;;;;;9.1;6.5;;;;;;;4.34;86.25098;930.2108;;;;
2024/01/04 18:05:11;;;;;;;31.3;16.4;;;;;;;4.24;86.56836;930.2773;;;;
2024/01/04 18:07:49;;;;;;;16;9.3;;;;;;;4.25;86.70703;930.2438;;;;
2024/01/04 18:10:27;;;;;;;17.7;10.7;;;;;;;4.17;86.71094;930.3041;;;;
2024/01/04 18:13:05;;;;;;;17.5;11.6;;;;;;;4.19;86.8623;930.395;;;;
2024/01/04 18:15:44;;;;;;;19.2;12.8;;;;;;;4.19;86.98633;930.3833;;;;
2024/01/04 18:18:25;;;;;;;21.5;15;;;;;;;4.16;86.79004;930.4702;;;;
2024/01/04 18:20:51;;;;;;;16.9;11.3;;;;;;;3.97;87.23438;930.5636;;;;
2024/01/04 18:23:32;;;;;;;12.7;8.8;;;;;;;4.1;86.83301;930.4745;;;;
2024/01/04 18:26:11;;;;;;;13.9;8.9;;;;;;;4.05;87.17285;930.4877;;;;
2024/01/04 18:28:49;;;;;;;11.3;8;;;;;;;3.93;87.37012;930.3979;;;;
2024/01/04 18:31:15;;;;;;;10.8;8.1;;;;;;;3.78;87.64355;930.4451;;;;
2024/01/04 18:33:53;;;;;;;9.3;7.3;;;;;;;3.7;88.07617;930.525;;;;
2024/01/04 18:36:31;;;;;;;8;6.5;;;;;;;3.8;87.8291;930.5875;;;;
2024/01/04 18:39:09;;;;;;;8.8;6.3;;;;;;;3.72;87.9248;930.5547;;;;
2024/01/04 18:41:47;;;;;;;8.2;5.9;;;;;;;3.84;87.68848;930.6275;;;;
2024/01/04 18:44:14;;;;;;;8.9;5.9;;;;;;;3.8;87.21094;930.6761;;;;
2024/01/04 18:46:52;;;;;;;7.9;5.4;;;;;;;3.7;87.50488;930.7172;;;;
2024/01/04 18:49:34;;;;;;;11.5;8.3;;;;;;;3.6;87.76367;930.6925;;;;
2024/01/04 18:52:00;;;;;;;12.8;8.6;;;;;;;3.56;88.2168;930.7381;;;;